createdAt,value
2018-03-03T00:02:11.982Z,38.85
2018-03-03T00:04:41.544Z,38.53
2018-03-03T00:07:11.830Z,36.50
2018-03-03T00:09:41.611Z,35.55
2018-03-03T00:12:11.034Z,35.25
2018-03-03T00:14:40.680Z,38.08
2018-03-03T00:17:10.254Z,37.45
2018-03-03T00:19:39.957Z,37.85
2018-03-03T00:22:11.916Z,37.88
2018-03-03T00:24:41.788Z,38.80
2018-03-03T00:27:11.422Z,38.15
2018-03-03T00:29:41.299Z,36.83
2018-03-03T00:32:11.048Z,38.63
2018-03-03T00:34:40.829Z,38.22
2018-03-03T00:40:43.689Z,36.78
2018-03-03T00:43:13.224Z,37.28
2018-03-03T00:45:44.460Z,39.10
2018-03-03T00:48:14.403Z,37.58
2018-03-03T00:50:47.700Z,41.03
2018-03-03T00:53:18.105Z,38.20
2018-03-03T00:55:47.745Z,39.83
2018-03-03T00:59:37.332Z,37.83
2018-03-03T01:02:07.037Z,38.78
2018-03-03T01:05:08.116Z,40.72
2018-03-03T01:08:40.417Z,37.95
2018-03-03T01:11:10.552Z,37.35
2018-03-03T01:13:40.466Z,37.72
2018-03-03T01:16:10.095Z,38.55
2018-03-03T01:18:40.388Z,40.10
2018-03-03T01:21:10.311Z,42.00
2018-03-03T01:23:40.014Z,40.53
2018-03-03T01:26:10.578Z,40.08
2018-03-03T01:28:41.725Z,39.80
2018-03-03T01:31:12.393Z,41.65
2018-03-03T01:33:42.411Z,42.17
2018-03-03T01:36:12.486Z,40.90
2018-03-03T01:38:42.963Z,39.17
2018-03-03T01:41:12.697Z,40.15
2018-03-03T01:43:42.621Z,38.33
2018-03-03T01:46:12.329Z,37.25
2018-03-03T01:48:42.083Z,38.30
2018-03-03T01:51:17.128Z,37.03
2018-03-03T01:53:46.694Z,40.40
2018-03-03T01:56:17.246Z,40.88
2018-03-03T01:58:47.072Z,40.53
2018-03-03T02:01:16.956Z,40.33
2018-03-03T02:03:47.318Z,38.33
2018-03-03T02:06:22.134Z,41.80
2018-03-03T02:08:53.777Z,40.15
2018-03-03T02:11:24.130Z,39.58
2018-03-03T02:13:54.150Z,39.05
2018-03-03T02:16:24.100Z,39.88
2018-03-03T02:18:53.668Z,38.20
2018-03-03T02:21:23.273Z,40.55
2018-03-03T02:23:52.899Z,35.55
2018-03-03T02:26:22.318Z,40.28
2018-03-03T02:28:53.179Z,38.42
2018-03-03T02:31:26.970Z,39.60
2018-03-03T02:33:56.465Z,38.90
2018-03-03T02:36:32.069Z,37.22
2018-03-03T02:39:01.282Z,40.80
2018-03-03T02:41:30.444Z,36.47
2018-03-03T02:44:00.793Z,40.40
2018-03-03T02:46:30.259Z,39.28
2018-03-03T02:48:59.593Z,41.50
2018-03-03T02:51:29.256Z,37.65
2018-03-03T02:53:58.934Z,38.22
2018-03-03T02:56:31.205Z,39.35
2018-03-03T02:59:00.873Z,38.63
2018-03-03T03:01:30.127Z,35.78
2018-03-03T03:03:59.515Z,40.03
2018-03-03T03:06:28.732Z,39.28
2018-03-03T03:08:57.941Z,41.03
2018-03-03T03:11:27.448Z,39.85
2018-03-03T03:13:56.604Z,40.97
2018-03-03T03:16:25.934Z,40.70
2018-03-03T03:18:55.131Z,42.78
2018-03-03T03:21:24.423Z,41.35
2018-03-03T03:23:53.735Z,40.17
2018-03-03T03:26:26.696Z,37.08
2018-03-03T03:28:56.025Z,40.38
2018-03-03T03:31:25.096Z,42.03
2018-03-03T03:33:54.502Z,39.58
2018-03-03T03:36:23.739Z,40.22
2018-03-03T03:38:53.630Z,38.63
2018-03-03T03:41:22.995Z,38.88
2018-03-03T03:43:52.183Z,38.67
2018-03-03T03:46:21.416Z,38.92
2018-03-03T03:48:50.543Z,37.97
2018-03-03T03:51:20.247Z,40.20
2018-03-03T03:53:50.130Z,39.50
2018-03-03T03:56:19.445Z,38.15
2018-03-03T03:58:48.502Z,41.63
2018-03-03T04:01:17.627Z,40.80
2018-03-03T04:03:46.750Z,40.45
2018-03-03T04:06:16.791Z,39.30
2018-03-03T04:08:45.895Z,41.55
2018-03-03T04:11:15.025Z,38.95
2018-03-03T04:13:44.437Z,41.65
2018-03-03T04:16:13.837Z,39.88
2018-03-03T04:18:42.947Z,37.72
2018-03-03T04:21:12.057Z,38.78
2018-03-03T04:23:42.851Z,40.15
2018-03-03T04:26:12.196Z,37.88
2018-03-03T04:28:42.315Z,40.22
2018-03-03T04:31:12.201Z,40.20
2018-03-03T04:33:41.570Z,37.40
2018-03-03T04:36:10.894Z,41.05
2018-03-03T04:38:40.538Z,39.17
2018-03-03T04:41:10.496Z,36.55
2018-03-03T04:43:39.813Z,39.63
2018-03-03T04:46:09.097Z,39.17
2018-03-03T04:48:39.214Z,39.17
2018-03-03T04:51:08.456Z,39.38
2018-03-03T04:53:37.720Z,39.88
2018-03-03T04:56:07.940Z,39.10
2018-03-03T04:58:37.544Z,36.95
2018-03-03T05:01:14.425Z,37.08
2018-03-03T05:03:47.743Z,40.65
2018-03-03T05:06:17.149Z,36.08
2018-03-03T05:08:46.804Z,37.78
2018-03-03T05:11:16.099Z,37.53
2018-03-03T05:13:45.769Z,40.60
2018-03-03T05:16:16.361Z,35.75
2018-03-03T05:19:55.364Z,35.80
2018-03-03T05:22:26.075Z,37.53
2018-03-03T05:24:57.462Z,38.90
2018-03-03T05:27:26.744Z,37.28
2018-03-03T05:29:57.090Z,37.35
2018-03-03T05:32:26.637Z,40.88
2018-03-03T05:34:56.336Z,38.83
2018-03-03T05:37:25.942Z,39.38
2018-03-03T05:39:55.488Z,36.85
2018-03-03T05:42:25.763Z,38.50
2018-03-03T05:44:55.382Z,37.78
2018-03-03T05:47:24.900Z,37.22
2018-03-03T05:49:54.743Z,38.88
2018-03-03T05:52:24.833Z,39.67
2018-03-03T05:54:54.541Z,39.80
2018-03-03T05:57:24.709Z,38.67
2018-03-03T05:59:54.352Z,38.95
2018-03-03T06:02:24.172Z,37.85
2018-03-03T06:04:53.667Z,39.58
2018-03-03T06:07:24.500Z,39.53
2018-03-03T06:09:53.947Z,43.03
2018-03-03T06:12:24.125Z,39.17
2018-03-03T06:14:55.673Z,37.05
2018-03-03T06:17:26.110Z,40.45
2018-03-03T06:19:55.600Z,39.72
2018-03-03T06:22:25.349Z,39.90
2018-03-03T06:24:55.194Z,41.35
2018-03-03T06:28:44.252Z,37.08
2018-03-03T06:31:14.817Z,40.63
2018-03-03T06:33:44.533Z,40.35
2018-03-03T06:36:17.060Z,37.13
2018-03-03T06:39:02.961Z,38.03
2018-03-03T06:41:32.940Z,37.95
2018-03-03T06:44:03.663Z,37.40
2018-03-03T06:46:33.383Z,38.60
2018-03-03T06:49:03.346Z,37.92
2018-03-03T06:51:33.124Z,35.05
2018-03-03T06:54:02.931Z,36.20
2018-03-03T06:56:32.686Z,36.28
2018-03-03T06:59:02.649Z,37.28
2018-03-03T07:01:33.324Z,37.90
2018-03-03T07:04:03.957Z,35.95
2018-03-03T07:06:33.597Z,33.15
2018-03-03T07:09:03.306Z,40.12
2018-03-03T07:11:33.120Z,37.83
2018-03-03T07:14:03.238Z,34.00
2018-03-03T07:16:33.380Z,36.65
2018-03-03T07:19:03.839Z,36.10
2018-03-03T07:21:34.535Z,36.85
2018-03-03T07:24:04.323Z,36.33
2018-03-03T07:26:34.056Z,36.63
2018-03-03T07:29:04.217Z,35.35
2018-03-03T07:31:34.737Z,34.35
2018-03-03T07:34:05.042Z,35.67
2018-03-03T07:36:35.028Z,36.63
2018-03-03T07:39:05.209Z,36.03
2018-03-03T07:41:36.636Z,36.53
2018-03-03T07:44:06.437Z,35.85
2018-03-03T07:46:36.131Z,38.55
2018-03-03T07:49:06.021Z,36.75
2018-03-03T07:51:37.216Z,34.70
2018-03-03T07:54:06.794Z,36.33
2018-03-03T07:56:45.849Z,35.28
2018-03-03T07:59:15.458Z,33.72
2018-03-03T08:01:45.260Z,37.55
2018-03-03T08:04:15.005Z,35.70
2018-03-03T08:06:45.469Z,33.95
2018-03-03T08:09:15.265Z,35.95
2018-03-03T08:11:45.093Z,36.03
2018-03-03T08:14:14.730Z,38.30
2018-03-03T08:16:44.301Z,37.45
2018-03-03T08:19:14.037Z,37.70
2018-03-03T08:21:49.307Z,38.42
2018-03-03T08:24:19.760Z,36.15
2018-03-03T08:26:50.092Z,35.10
2018-03-03T08:29:19.677Z,36.95
2018-03-03T08:31:50.297Z,38.22
2018-03-03T08:34:20.522Z,39.08
2018-03-03T08:36:50.978Z,35.08
2018-03-03T08:39:20.781Z,38.35
2018-03-03T08:41:50.495Z,37.80
2018-03-03T08:44:20.122Z,38.40
2018-03-03T08:46:49.629Z,38.55
2018-03-03T08:50:22.502Z,37.53
2018-03-03T08:52:51.998Z,36.60
2018-03-03T08:55:21.675Z,38.17
2018-03-03T08:57:51.263Z,37.90
2018-03-03T09:00:20.818Z,37.85
2018-03-03T09:03:06.082Z,39.55
2018-03-03T09:05:37.486Z,39.03
2018-03-03T09:08:06.932Z,36.40
2018-03-03T09:10:37.197Z,41.78
2018-03-03T09:13:06.693Z,37.40
2018-03-03T09:15:36.105Z,40.65
2018-03-03T09:18:05.748Z,38.25
2018-03-03T09:20:35.233Z,35.30
2018-03-03T09:23:04.783Z,40.40
2018-03-03T09:25:35.451Z,39.63
2018-03-03T09:28:05.832Z,37.45
2018-03-03T09:30:36.306Z,40.67
2018-03-03T09:33:05.853Z,44.20
2018-03-03T09:35:35.502Z,42.17
2018-03-03T09:38:05.356Z,41.60
2018-03-03T09:40:35.017Z,44.53
2018-03-03T09:43:04.646Z,42.95
2018-03-03T09:45:34.310Z,40.58
2018-03-03T09:48:04.652Z,43.50
2018-03-03T09:50:35.028Z,42.30
2018-03-03T09:53:04.500Z,40.90
2018-03-03T09:55:40.630Z,39.55
2018-03-03T09:58:11.098Z,40.45
2018-03-03T10:00:40.825Z,43.42
2018-03-03T10:03:10.348Z,42.83
2018-03-03T10:05:40.112Z,41.85
2018-03-03T10:08:10.401Z,41.75
2018-03-03T10:10:40.708Z,43.83
2018-03-03T10:13:11.898Z,41.83
2018-03-03T10:15:42.395Z,43.58
2018-03-03T10:18:12.545Z,45.60
2018-03-03T10:20:42.426Z,44.72
2018-03-03T10:23:15.481Z,45.40
2018-03-03T10:25:46.461Z,45.83
2018-03-03T10:28:16.100Z,46.03
2018-03-03T10:30:45.860Z,43.75
2018-03-03T10:33:15.958Z,46.08
2018-03-03T10:35:45.485Z,47.00
2018-03-03T10:38:15.100Z,48.15
2018-03-03T10:40:45.348Z,49.60
2018-03-03T10:43:15.034Z,45.42
2018-03-03T10:45:45.621Z,47.40
2018-03-03T10:48:15.367Z,47.17
2018-03-03T10:50:45.035Z,49.38
2018-03-03T10:53:15.112Z,46.50
2018-03-03T10:55:44.756Z,49.63
2018-03-03T10:58:14.359Z,50.20
2018-03-03T11:00:44.486Z,48.25
2018-03-03T11:03:19.001Z,50.35
2018-03-03T11:05:48.460Z,47.90
2018-03-03T11:08:18.642Z,49.05
2018-03-03T11:10:48.385Z,47.90
2018-03-03T11:13:18.615Z,47.70
2018-03-03T11:15:49.122Z,48.75
2018-03-03T11:18:19.465Z,47.22
2018-03-03T11:20:49.705Z,45.60
2018-03-03T11:23:20.002Z,47.33
2018-03-03T11:25:50.154Z,47.40
2018-03-03T11:28:19.783Z,47.15
2018-03-03T11:30:50.119Z,50.78
2018-03-03T11:33:19.660Z,47.80
2018-03-03T11:35:49.200Z,45.83
2018-03-03T11:38:18.712Z,52.05
2018-03-03T11:40:48.904Z,49.05
2018-03-03T11:43:19.250Z,45.78
2018-03-03T11:45:49.606Z,47.53
2018-03-03T11:48:19.143Z,50.28
2018-03-03T11:50:49.592Z,47.22
2018-03-03T11:53:22.856Z,47.75
2018-03-03T11:55:52.538Z,48.53
2018-03-03T11:58:21.970Z,47.70
2018-03-03T12:00:51.498Z,47.58
2018-03-03T12:03:21.740Z,47.40
2018-03-03T12:05:51.167Z,50.20
2018-03-03T12:08:21.388Z,47.88
2018-03-03T12:10:51.670Z,48.47
2018-03-03T12:13:21.133Z,46.60
2018-03-03T12:15:50.738Z,49.17
2018-03-03T12:18:20.304Z,46.05
2018-03-03T12:20:49.766Z,47.33
2018-03-03T12:23:19.508Z,49.60
2018-03-03T12:25:49.886Z,47.33
2018-03-03T12:28:19.491Z,47.35
2018-03-03T12:30:49.798Z,48.08
2018-03-03T12:33:19.371Z,48.60
2018-03-03T12:35:49.652Z,49.40
2018-03-03T12:38:19.128Z,47.78
2018-03-03T12:40:48.557Z,46.00
2018-03-03T12:43:17.971Z,46.45
2018-03-03T12:45:52.101Z,47.60
2018-03-03T12:48:22.387Z,42.75
2018-03-03T12:50:52.112Z,44.65
2018-03-03T12:53:21.847Z,45.85
2018-03-03T12:55:52.200Z,44.65
2018-03-03T12:58:21.716Z,44.38
2018-03-03T13:00:52.413Z,43.42
2018-03-03T13:03:22.604Z,46.15
2018-03-03T13:05:52.174Z,45.25
2018-03-03T13:08:21.743Z,48.85
2018-03-03T13:10:52.135Z,45.95
2018-03-03T13:13:21.598Z,46.35
2018-03-03T13:15:51.838Z,45.75
2018-03-03T13:18:21.420Z,46.13
2018-03-03T13:20:51.026Z,43.83
2018-03-03T13:23:20.552Z,47.55
2018-03-03T13:25:49.915Z,48.65
2018-03-03T13:28:20.131Z,45.72
2018-03-03T13:30:53.239Z,46.58
2018-03-03T13:33:22.790Z,49.53
2018-03-03T13:35:53.219Z,47.70
2018-03-03T13:38:22.763Z,48.00
2018-03-03T13:40:53.029Z,47.25
2018-03-03T13:43:23.715Z,46.72
2018-03-03T13:45:53.200Z,46.20
2018-03-03T13:48:23.912Z,47.83
2018-03-03T13:50:54.306Z,45.60
2018-03-03T13:53:23.920Z,50.83
2018-03-03T13:55:54.650Z,47.62
2018-03-03T13:58:24.322Z,49.25
2018-03-03T14:00:53.847Z,50.95
2018-03-03T14:03:25.152Z,47.65
2018-03-03T14:05:54.820Z,47.15
2018-03-03T14:08:24.335Z,47.72
2018-03-03T14:10:54.524Z,46.70
2018-03-03T14:13:25.167Z,46.10
2018-03-03T14:15:55.461Z,47.30
2018-03-03T14:18:25.625Z,47.60
2018-03-03T14:20:55.081Z,47.30
2018-03-03T14:23:24.596Z,47.42
2018-03-03T14:25:54.158Z,48.78
2018-03-03T14:28:23.929Z,48.30
2018-03-03T14:30:53.406Z,45.67
2018-03-03T14:33:23.154Z,47.03
2018-03-03T14:35:52.821Z,45.88
2018-03-03T14:38:23.056Z,46.45
2018-03-03T14:40:52.460Z,47.62
2018-03-03T14:43:21.974Z,47.50
2018-03-03T14:45:55.151Z,47.00
2018-03-03T14:48:25.577Z,47.67
2018-03-03T14:50:56.049Z,48.00
2018-03-03T14:53:39.812Z,44.40
2018-03-03T14:56:09.364Z,47.17
2018-03-03T14:58:39.623Z,48.05
2018-03-03T15:03:45.392Z,46.17
2018-03-03T15:06:14.896Z,44.95
2018-03-03T15:08:44.433Z,45.65
2018-03-03T15:11:14.121Z,47.90
2018-03-03T15:15:03.406Z,46.58
2018-03-03T15:17:33.751Z,45.92
2018-03-03T15:20:03.521Z,45.38
2018-03-03T15:22:33.432Z,46.28
2018-03-03T15:25:03.298Z,47.28
2018-03-03T15:27:32.732Z,46.83
2018-03-03T15:30:02.993Z,45.30
2018-03-03T15:32:32.419Z,44.80
2018-03-03T15:35:02.625Z,47.17
2018-03-03T15:37:32.773Z,44.45
2018-03-03T15:40:02.180Z,47.53
2018-03-03T15:42:31.581Z,47.92
2018-03-03T15:45:00.954Z,46.75
2018-03-03T15:47:31.135Z,46.80
2018-03-03T15:50:00.666Z,42.05
2018-03-03T15:52:30.123Z,44.53
2018-03-03T15:55:00.422Z,43.13
2018-03-03T15:57:30.660Z,45.38
2018-03-03T16:00:03.875Z,45.58
2018-03-03T16:02:34.281Z,43.50
2018-03-03T16:05:04.690Z,42.53
2018-03-03T16:07:34.296Z,42.10
2018-03-03T16:10:04.640Z,43.13
2018-03-03T16:12:43.530Z,41.08
2018-03-03T16:15:14.043Z,42.60
2018-03-03T16:17:43.836Z,44.33
2018-03-03T16:20:13.952Z,44.63
2018-03-03T16:22:43.398Z,45.22
2018-03-03T16:25:12.872Z,43.30
2018-03-03T16:27:42.280Z,46.63
2018-03-03T16:30:11.787Z,43.45
2018-03-03T16:32:42.063Z,45.45
2018-03-03T16:35:12.219Z,45.42
2018-03-03T16:37:44.209Z,43.20
2018-03-03T16:40:14.504Z,46.13
2018-03-03T16:42:44.676Z,43.08
2018-03-03T16:45:14.068Z,43.63
2018-03-03T16:47:43.608Z,43.97
2018-03-03T16:50:13.862Z,45.05
2018-03-03T16:52:43.362Z,43.75
2018-03-03T16:55:12.944Z,40.92
2018-03-03T16:57:42.454Z,43.50
2018-03-03T17:00:12.484Z,44.72
2018-03-03T17:02:41.912Z,44.10
2018-03-03T17:05:12.313Z,45.03
2018-03-03T17:07:42.004Z,45.47
2018-03-03T17:10:12.236Z,43.40
2018-03-03T17:12:42.589Z,44.05
2018-03-03T17:15:13.038Z,45.38
2018-03-03T17:17:42.425Z,46.58
2018-03-03T17:20:12.971Z,46.03
2018-03-03T17:22:42.521Z,45.08
2018-03-03T17:25:11.965Z,45.20
2018-03-03T17:27:41.459Z,45.80
2018-03-03T17:30:11.004Z,44.88
2018-03-03T17:32:40.435Z,43.40
2018-03-03T17:35:10.588Z,43.40
2018-03-03T17:37:40.037Z,44.63
2018-03-03T17:40:09.455Z,43.35
2018-03-03T17:42:39.268Z,43.67
2018-03-03T17:45:09.594Z,42.50
2018-03-03T17:47:39.815Z,41.97
2018-03-03T17:50:10.117Z,41.45
2018-03-03T17:52:39.653Z,41.42
2018-03-03T17:55:09.072Z,43.95
2018-03-03T17:57:45.841Z,44.95
2018-03-03T18:00:15.825Z,41.37
2018-03-03T18:02:45.334Z,40.22
2018-03-03T18:05:15.567Z,41.45
2018-03-03T18:07:45.737Z,42.67
2018-03-03T18:10:15.237Z,40.10
2018-03-03T18:12:44.736Z,39.13
2018-03-03T18:15:14.471Z,37.15
2018-03-03T18:17:43.869Z,40.10
2018-03-03T18:20:13.671Z,39.78
2018-03-03T18:22:43.068Z,40.85
2018-03-03T18:25:12.647Z,39.30
2018-03-03T18:27:42.104Z,38.88
2018-03-03T18:30:12.263Z,38.13
2018-03-03T18:32:45.622Z,41.53
2018-03-03T18:35:15.035Z,40.53
2018-03-03T18:37:45.238Z,39.70
2018-03-03T18:40:14.573Z,41.78
2018-03-03T18:42:44.860Z,40.97
2018-03-03T18:45:14.389Z,41.03
2018-03-03T18:47:44.630Z,39.35
2018-03-03T18:50:14.064Z,42.95
2018-03-03T18:52:43.583Z,42.20
2018-03-03T18:55:13.051Z,45.10
2018-03-03T18:57:42.416Z,43.10
2018-03-03T19:00:11.820Z,43.22
2018-03-03T19:02:41.332Z,44.88
2018-03-03T19:05:11.566Z,43.58
2018-03-03T19:07:42.113Z,44.13
2018-03-03T19:10:11.562Z,42.08
2018-03-03T19:12:41.776Z,45.00
2018-03-03T19:15:11.223Z,43.65
2018-03-03T19:17:41.475Z,46.97
2018-03-03T19:20:10.916Z,46.90
2018-03-03T19:22:40.337Z,46.37
2018-03-03T19:25:09.741Z,46.00
2018-03-03T19:27:40.074Z,45.28
2018-03-03T19:30:10.487Z,43.17
2018-03-03T19:32:40.119Z,44.17
2018-03-03T19:35:10.345Z,41.42
2018-03-03T19:37:39.814Z,42.70
2018-03-03T19:40:09.342Z,44.17
2018-03-03T19:42:39.547Z,43.78
2018-03-03T19:45:09.725Z,43.33
2018-03-03T19:47:39.266Z,42.50
2018-03-03T19:50:08.869Z,42.25
2018-03-03T19:52:38.466Z,44.72
2018-03-03T19:55:07.910Z,40.97
2018-03-03T19:57:38.210Z,44.60
2018-03-03T20:00:07.901Z,41.25
2018-03-03T20:02:37.407Z,43.95
2018-03-03T20:05:06.994Z,44.75
2018-03-03T20:07:36.552Z,43.05
2018-03-03T20:10:06.636Z,43.90
2018-03-03T20:12:35.976Z,45.28
2018-03-03T20:15:05.442Z,42.95
2018-03-03T20:17:34.721Z,46.00
2018-03-03T20:20:04.256Z,46.47
2018-03-03T20:22:33.848Z,43.97
2018-03-03T20:25:03.176Z,48.85
2018-03-03T20:27:33.383Z,47.85
2018-03-03T20:30:02.781Z,49.47
2018-03-03T20:32:32.267Z,50.83
2018-03-03T20:35:01.566Z,50.70
2018-03-03T20:37:31.196Z,51.08
2018-03-03T20:40:00.562Z,52.70
2018-03-03T20:42:30.953Z,52.53
2018-03-03T20:45:00.433Z,54.50
2018-03-03T20:47:29.817Z,51.60
2018-03-03T20:49:59.971Z,54.63
2018-03-03T20:52:30.288Z,55.63
2018-03-03T20:55:00.547Z,50.90
2018-03-03T20:57:30.133Z,52.15
2018-03-03T21:00:00.377Z,53.45
2018-03-03T21:02:30.531Z,55.00
2018-03-03T21:04:59.861Z,52.40
2018-03-03T21:07:31.495Z,53.78
2018-03-03T21:10:00.951Z,47.22
2018-03-03T21:12:30.564Z,49.60
2018-03-03T21:15:00.689Z,53.15
2018-03-03T21:17:30.065Z,53.92
2018-03-03T21:20:00.521Z,49.95
2018-03-03T21:22:30.734Z,51.97
2018-03-03T21:25:00.140Z,54.20
2018-03-03T21:27:30.761Z,51.15
2018-03-03T21:33:32.680Z,49.15
2018-03-03T21:36:02.847Z,53.35
2018-03-03T21:38:33.081Z,56.58
2018-03-03T21:41:03.488Z,50.78
2018-03-03T21:43:32.984Z,51.70
2018-03-03T21:46:02.412Z,52.13
2018-03-03T21:48:32.503Z,54.30
2018-03-03T21:51:02.781Z,49.15
2018-03-03T21:53:32.282Z,48.22
2018-03-03T21:56:02.504Z,50.30
2018-03-03T21:58:31.891Z,50.67
2018-03-03T22:01:01.366Z,50.65
2018-03-03T22:03:30.937Z,49.65
2018-03-03T22:06:00.493Z,49.47
2018-03-03T22:08:30.136Z,48.95
2018-03-03T22:10:59.596Z,46.47
2018-03-03T22:13:29.016Z,49.25
2018-03-03T22:15:59.386Z,47.40
2018-03-03T22:18:28.840Z,48.63
2018-03-03T22:20:59.151Z,46.00
2018-03-03T22:23:29.357Z,48.28
2018-03-03T22:25:58.989Z,50.75
2018-03-03T22:28:29.300Z,47.83
2018-03-03T22:30:59.091Z,48.87
2018-03-03T22:33:28.564Z,49.20
2018-03-03T22:35:58.293Z,49.80
2018-03-03T22:38:28.003Z,49.33
2018-03-03T22:40:57.743Z,48.83
2018-03-03T22:43:27.325Z,49.65
2018-03-03T22:45:57.656Z,50.15
2018-03-03T22:48:28.264Z,49.53
2018-03-03T22:50:57.816Z,49.60
2018-03-03T22:53:27.518Z,49.97
2018-03-03T22:55:58.156Z,48.80
2018-03-03T22:58:27.720Z,47.75
2018-03-03T23:00:57.327Z,50.95
2018-03-03T23:03:26.806Z,50.08
2018-03-03T23:05:56.978Z,48.65
2018-03-03T23:08:26.469Z,50.38
2018-03-03T23:10:55.964Z,47.35
2018-03-03T23:13:25.403Z,48.30
2018-03-03T23:15:54.788Z,46.28
2018-03-03T23:18:24.333Z,47.92
2018-03-03T23:20:54.663Z,48.87
2018-03-03T23:23:24.188Z,46.75
2018-03-03T23:25:53.625Z,47.62
2018-03-03T23:28:23.173Z,49.88
2018-03-03T23:30:53.560Z,48.22
2018-03-03T23:33:23.154Z,49.42
2018-03-03T23:35:52.840Z,48.17
2018-03-03T23:38:22.512Z,47.70
2018-03-03T23:40:52.776Z,47.78
2018-03-03T23:43:22.342Z,47.00
2018-03-03T23:45:52.527Z,47.60
2018-03-03T23:48:22.115Z,48.50
2018-03-03T23:50:51.565Z,45.67
2018-03-03T23:53:21.897Z,44.78
2018-03-03T23:55:52.278Z,47.05
2018-03-03T23:58:22.087Z,46.75
